Wind From: 13-12-2017 10:08 Until: 14-12-2017 06:00 warning for: Wind Level: Yellow info button

Although rather usual in this region, locally or potentially dangerous phenomena are expected. (such as local winds, summer thunderstorms, rising streams or high waves) Be aware and pay attention to the latest weather updates, especially if you carry out activities exposed to weather or close to a stream or shoreline. 


Meteo18 Weather Cam more information Meteo18 Weather Cam


Thunder radar more information blitzortung!


Rain radar more information rain snow radar


Visit our other weather sites:

Template documentation
and downloads

And another site



Weather Underground History page Text

Daily Summary for July 23, 2017 Units:  Both    English   Metric
« Previous Day
Next Day »
Daily Weekly Monthly Yearly Custom
  High: Low: Average:
Temperature: 71.1 °F /  21.7 °C 55.9 °F /  13.3 °C 63 °F /  17.2 °C
Dew Point: 59.5 °F /  15.3 °C 52.5 °F /  11.4 °C 55.2 °F /  12.9 °C
Humidity: 93 % 54 % 77 %
Wind Speed: 17 mph /  27.4 km/h - 5.2 mph /  8.3 km/h
Wind Gust: 20 mph /  32.2 km/h - -
Wind:- - SW
Pressure: 30.1 in /  1020.2 hPa 30 in /  1014.8 hPa -
Precipitation: 0.04 in /  1.0 mm    
Historical Graphs
 
 
Tabular Data for July 23, 2017
Time Temperature Dew Point Pressure Wind Wind Speed Wind Gust Humidity Rainfall Rate (Hourly)
00:02 60.3 °F /  15.7 °C 54.7 °F /  12.6 °C 30.1 in /  1017.5 hPa SW 4 mph /  6.4 km/h 11 mph /  17.7 km/h 82 % 0 in /  0.0 mm
00:07 60.3 °F /  15.7 °C 54.7 °F /  12.6 °C 30.1 in /  1017.5 hPa SW 4 mph /  6.4 km/h 11 mph /  17.7 km/h 82 % 0 in /  0.0 mm
00:12 60.1 °F /  15.6 °C 54.5 °F /  12.5 °C 30.1 in /  1017.5 hPa SW 5 mph /  8.0 km/h 11 mph /  17.7 km/h 82 % 0 in /  0.0 mm
00:17 59.9 °F /  15.5 °C 54.3 °F /  12.4 °C 30.1 in /  1017.8 hPa SW 5 mph /  8.0 km/h 10 mph /  16.1 km/h 82 % 0 in /  0.0 mm
00:22 59.7 °F /  15.4 °C 54.1 °F /  12.3 °C 30.1 in /  1017.8 hPa SW 5 mph /  8.0 km/h 10 mph /  16.1 km/h 82 % 0 in /  0.0 mm
00:32 59.7 °F /  15.4 °C 54.5 °F /  12.5 °C 30.1 in /  1017.8 hPa SW 6 mph /  9.7 km/h 11 mph /  17.7 km/h 83 % 0 in /  0.0 mm
00:37 59.5 °F /  15.3 °C 54.3 °F /  12.4 °C 30.1 in /  1017.8 hPa SSW 4 mph /  6.4 km/h 11 mph /  17.7 km/h 83 % 0 in /  0.0 mm
00:42 59.5 °F /  15.3 °C 54.3 °F /  12.4 °C 30.1 in /  1017.8 hPa SW 4 mph /  6.4 km/h 11 mph /  17.7 km/h 83 % 0 in /  0.0 mm
00:47 59.4 °F /  15.2 °C 54.1 °F /  12.3 °C 30.1 in /  1017.8 hPa SW 6 mph /  9.7 km/h 10 mph /  16.1 km/h 83 % 0 in /  0.0 mm
00:52 59.2 °F /  15.1 °C 54.3 °F /  12.4 °C 30.1 in /  1017.8 hPa SW 3 mph /  4.8 km/h 10 mph /  16.1 km/h 84 % 0 in /  0.0 mm
00:57 59.2 °F /  15.1 °C 54.3 °F /  12.4 °C 30.1 in /  1017.8 hPa SSW 2 mph /  3.2 km/h 10 mph /  16.1 km/h 84 % 0 in /  0.0 mm
01:02 59 °F /  15.0 °C 54.1 °F /  12.3 °C 30.1 in /  1018.2 hPa SW 3 mph /  4.8 km/h 10 mph /  16.1 km/h 84 % 0 in /  0.0 mm
01:12 58.6 °F /  14.8 °C 54.1 °F /  12.3 °C 30.1 in /  1018.2 hPa SW 1 mph /  1.6 km/h 8 mph /  12.9 km/h 85 % 0 in /  0.0 mm
01:17 58.5 °F /  14.7 °C 54 °F /  12.2 °C 30.1 in /  1018.2 hPa SSW 3 mph /  4.8 km/h 7 mph /  11.3 km/h 85 % 0 in /  0.0 mm
01:22 58.5 °F /  14.7 °C 54.3 °F /  12.4 °C 30.1 in /  1018.5 hPa SW 4 mph /  6.4 km/h 7 mph /  11.3 km/h 86 % 0 in /  0.0 mm
01:27 58.3 °F /  14.6 °C 54.1 °F /  12.3 °C 30.1 in /  1018.5 hPa WSW 2 mph /  3.2 km/h 9 mph /  14.5 km/h 86 % 0 in /  0.0 mm
01:32 58.3 °F /  14.6 °C 54.5 °F /  12.5 °C 30.1 in /  1018.5 hPa SW 5 mph /  8.0 km/h 9 mph /  14.5 km/h 87 % 0 in /  0.0 mm
01:37 58.3 °F /  14.6 °C 54.5 °F /  12.5 °C 30.1 in /  1018.5 hPa SW 4 mph /  6.4 km/h 10 mph /  16.1 km/h 87 % 0 in /  0.0 mm
01:42 58.1 °F /  14.5 °C 54.3 °F /  12.4 °C 30.1 in /  1018.5 hPa WSW 3 mph /  4.8 km/h 10 mph /  16.1 km/h 87 % 0 in /  0.0 mm
01:47 57.9 °F /  14.4 °C 54.1 °F /  12.3 °C 30.1 in /  1018.5 hPa SW 4 mph /  6.4 km/h 8 mph /  12.9 km/h 87 % 0 in /  0.0 mm
01:52 57.9 °F /  14.4 °C 54.1 °F /  12.3 °C 30.1 in /  1018.5 hPa WSW 4 mph /  6.4 km/h 8 mph /  12.9 km/h 87 % 0 in /  0.0 mm
01:57 57.9 °F /  14.4 °C 54.3 °F /  12.4 °C 30.1 in /  1018.5 hPa SW 3 mph /  4.8 km/h 8 mph /  12.9 km/h 88 % 0 in /  0.0 mm
02:02 57.7 °F /  14.3 °C 54.1 °F /  12.3 °C 30.1 in /  1018.8 hPa SW 3 mph /  4.8 km/h 8 mph /  12.9 km/h 88 % 0 in /  0.0 mm
02:07 57.6 °F /  14.2 °C 54 °F /  12.2 °C 30.1 in /  1018.5 hPa SW 3 mph /  4.8 km/h 7 mph /  11.3 km/h 88 % 0 in /  0.0 mm
02:12 57.4 °F /  14.1 °C 53.8 °F /  12.1 °C 30.1 in /  1018.5 hPa SW 4 mph /  6.4 km/h 7 mph /  11.3 km/h 88 % 0 in /  0.0 mm
02:17 57 °F /  13.9 °C 53.8 °F /  12.1 °C 30.1 in /  1018.5 hPa SSW 3 mph /  4.8 km/h 7 mph /  11.3 km/h 89 % 0 in /  0.0 mm
02:22 56.8 °F /  13.8 °C 53.6 °F /  12.0 °C 30.1 in /  1018.5 hPa SSW 1 mph /  1.6 km/h 7 mph /  11.3 km/h 89 % 0 in /  0.0 mm
02:27 56.7 °F /  13.7 °C 53.4 °F /  11.9 °C 30.1 in /  1018.5 hPa SW 3 mph /  4.8 km/h 6 mph /  9.7 km/h 89 % 0 in /  0.0 mm
02:32 56.3 °F /  13.5 °C 53.4 °F /  11.9 °C 30.1 in /  1018.8 hPa SSW 4 mph /  6.4 km/h 6 mph /  9.7 km/h 90 % 0 in /  0.0 mm
02:42 55.9 °F /  13.3 °C 53.4 °F /  11.9 °C 30.1 in /  1018.8 hPa SSW 3 mph /  4.8 km/h 4 mph /  6.4 km/h 91 % 0 in /  0.0 mm
02:47 56.1 °F /  13.4 °C 53.6 °F /  12.0 °C 30.1 in /  1018.8 hPa SW 5 mph /  8.0 km/h 6 mph /  9.7 km/h 91 % 0 in /  0.0 mm
02:52 56.5 °F /  13.6 °C 54 °F /  12.2 °C 30.1 in /  1018.8 hPa SSW 4 mph /  6.4 km/h 6 mph /  9.7 km/h 91 % 0 in /  0.0 mm
02:57 56.7 °F /  13.7 °C 54.1 °F /  12.3 °C 30.1 in /  1018.8 hPa SW 4 mph /  6.4 km/h 8 mph /  12.9 km/h 91 % 0 in /  0.0 mm
03:02 56.7 °F /  13.7 °C 53.8 °F /  12.1 °C 30.1 in /  1018.8 hPa WSW 5 mph /  8.0 km/h 8 mph /  12.9 km/h 90 % 0 in /  0.0 mm
03:12 56.7 °F /  13.7 °C 53.8 °F /  12.1 °C 30.1 in /  1018.8 hPa WSW 7 mph /  11.3 km/h 8 mph /  12.9 km/h 90 % 0 in /  0.0 mm
03:17 56.8 °F /  13.8 °C 54 °F /  12.2 °C 30.1 in /  1018.8 hPa SW 4 mph /  6.4 km/h 9 mph /  14.5 km/h 90 % 0 in /  0.0 mm
03:22 56.8 °F /  13.8 °C 54 °F /  12.2 °C 30.1 in /  1018.8 hPa SW 5 mph /  8.0 km/h 9 mph /  14.5 km/h 90 % 0 in /  0.0 mm
03:27 56.7 °F /  13.7 °C 53.4 °F /  11.9 °C 30.1 in /  1018.8 hPa SW 7 mph /  11.3 km/h 9 mph /  14.5 km/h 89 % 0 in /  0.0 mm
03:32 56.7 °F /  13.7 °C 53.4 °F /  11.9 °C 30.1 in /  1018.8 hPa SSW 6 mph /  9.7 km/h 9 mph /  14.5 km/h 89 % 0 in /  0.0 mm
03:42 56.8 °F /  13.8 °C 53.6 °F /  12.0 °C 30.1 in /  1018.8 hPa SW 3 mph /  4.8 km/h 8 mph /  12.9 km/h 89 % 0 in /  0.0 mm
03:47 56.7 °F /  13.7 °C 53.4 °F /  11.9 °C 30.1 in /  1018.8 hPa South 5 mph /  8.0 km/h 9 mph /  14.5 km/h 89 % 0 in /  0.0 mm
03:52 56.7 °F /  13.7 °C 53.4 °F /  11.9 °C 30.1 in /  1018.8 hPa SSW 3 mph /  4.8 km/h 9 mph /  14.5 km/h 89 % 0 in /  0.0 mm
03:57 56.7 °F /  13.7 °C 53.4 °F /  11.9 °C 30.1 in /  1018.8 hPa SW 3 mph /  4.8 km/h 8 mph /  12.9 km/h 89 % 0 in /  0.0 mm
04:02 56.7 °F /  13.7 °C 53.4 °F /  11.9 °C 30.1 in /  1018.8 hPa SW 4 mph /  6.4 km/h 8 mph /  12.9 km/h 89 % 0 in /  0.0 mm
04:07 56.8 °F /  13.8 °C 53.6 °F /  12.0 °C 30.1 in /  1018.8 hPa SSW 4 mph /  6.4 km/h 8 mph /  12.9 km/h 89 % 0 in /  0.0 mm
04:12 57 °F /  13.9 °C 53.8 °F /  12.1 °C 30.1 in /  1018.8 hPa SW 7 mph /  11.3 km/h 8 mph /  12.9 km/h 89 % 0 in /  0.0 mm
04:17 57 °F /  13.9 °C 53.4 °F /  11.9 °C 30.1 in /  1018.8 hPa SSW 3 mph /  4.8 km/h 10 mph /  16.1 km/h 88 % 0 in /  0.0 mm
04:22 57.4 °F /  14.1 °C 53.8 °F /  12.1 °C 30.1 in /  1018.8 hPa SW 7 mph /  11.3 km/h 10 mph /  16.1 km/h 88 % 0 in /  0.0 mm
04:32 57.4 °F /  14.1 °C 54.1 °F /  12.3 °C 30.1 in /  1018.8 hPa South 6 mph /  9.7 km/h 10 mph /  16.1 km/h 89 % 0 in /  0.0 mm
04:37 57.6 °F /  14.2 °C 54.3 °F /  12.4 °C 30.1 in /  1018.8 hPa WSW 4 mph /  6.4 km/h 8 mph /  12.9 km/h 89 % 0 in /  0.0 mm
04:42 57.6 °F /  14.2 °C 54.3 °F /  12.4 °C 30.1 in /  1018.8 hPa SSW 5 mph /  8.0 km/h 8 mph /  12.9 km/h 89 % 0 in /  0.0 mm
04:47 57.7 °F /  14.3 °C 54.5 °F /  12.5 °C 30.1 in /  1018.8 hPa SW 7 mph /  11.3 km/h 11 mph /  17.7 km/h 89 % 0 in /  0.0 mm
04:52 57.7 °F /  14.3 °C 54.1 °F /  12.3 °C 30.1 in /  1018.8 hPa SW 5 mph /  8.0 km/h 11 mph /  17.7 km/h 88 % 0 in /  0.0 mm
04:57 57.9 °F /  14.4 °C 54.3 °F /  12.4 °C 30.1 in /  1018.8 hPa SSW 4 mph /  6.4 km/h 11 mph /  17.7 km/h 88 % 0 in /  0.0 mm
05:02 57.9 °F /  14.4 °C 54.3 °F /  12.4 °C 30.1 in /  1018.8 hPa SSW 3 mph /  4.8 km/h 11 mph /  17.7 km/h 88 % 0 in /  0.0 mm
05:12 58.1 °F /  14.5 °C 54.5 °F /  12.5 °C 30.1 in /  1018.8 hPa SW 4 mph /  6.4 km/h 10 mph /  16.1 km/h 88 % 0 in /  0.0 mm
05:17 58.3 °F /  14.6 °C 54.7 °F /  12.6 °C 30.1 in /  1018.8 hPa SSW 5 mph /  8.0 km/h 8 mph /  12.9 km/h 88 % 0 in /  0.0 mm
05:22 58.3 °F /  14.6 °C 54.7 °F /  12.6 °C 30.1 in /  1018.8 hPa WSW 4 mph /  6.4 km/h 8 mph /  12.9 km/h 88 % 0 in /  0.0 mm
05:32 58.3 °F /  14.6 °C 54.5 °F /  12.5 °C 30.1 in /  1018.8 hPa SSW 3 mph /  4.8 km/h 9 mph /  14.5 km/h 87 % 0 in /  0.0 mm
05:42 58.3 °F /  14.6 °C 54.5 °F /  12.5 °C 30.1 in /  1018.8 hPa SW 4 mph /  6.4 km/h 9 mph /  14.5 km/h 87 % 0 in /  0.0 mm
05:52 58.3 °F /  14.6 °C 54.5 °F /  12.5 °C 30.1 in /  1018.8 hPa SW 7 mph /  11.3 km/h 9 mph /  14.5 km/h 87 % 0 in /  0.0 mm
05:57 58.1 °F /  14.5 °C 54.3 °F /  12.4 °C 30.1 in /  1018.8 hPa SW 5 mph /  8.0 km/h 8 mph /  12.9 km/h 87 % 0 in /  0.0 mm
06:02 58.1 °F /  14.5 °C 54.5 °F /  12.5 °C 30.1 in /  1019.2 hPa SW 6 mph /  9.7 km/h 8 mph /  12.9 km/h 88 % 0 in /  0.0 mm
06:12 58.1 °F /  14.5 °C 54.5 °F /  12.5 °C 30.1 in /  1019.2 hPa SW 3 mph /  4.8 km/h 8 mph /  12.9 km/h 88 % 0 in /  0.0 mm
06:17 58.1 °F /  14.5 °C 54.5 °F /  12.5 °C 30.1 in /  1019.2 hPa SSW 4 mph /  6.4 km/h 8 mph /  12.9 km/h 88 % 0 in /  0.0 mm
06:22 57.9 °F /  14.4 °C 54.3 °F /  12.4 °C 30.1 in /  1019.2 hPa SW 5 mph /  8.0 km/h 8 mph /  12.9 km/h 88 % 0 in /  0.0 mm
06:32 58.3 °F /  14.6 °C 54.7 °F /  12.6 °C 30.1 in /  1019.2 hPa SW 4 mph /  6.4 km/h 8 mph /  12.9 km/h 88 % 0 in /  0.0 mm
06:42 58.5 °F /  14.7 °C 54.7 °F /  12.6 °C 30.1 in /  1019.2 hPa SSW 4 mph /  6.4 km/h 9 mph /  14.5 km/h 87 % 0 in /  0.0 mm
06:47 58.5 °F /  14.7 °C 54.3 °F /  12.4 °C 30.1 in /  1019.2 hPa SW 3 mph /  4.8 km/h 9 mph /  14.5 km/h 86 % 0 in /  0.0 mm
06:52 58.5 °F /  14.7 °C 54.3 °F /  12.4 °C 30.1 in /  1019.2 hPa SW 2 mph /  3.2 km/h 9 mph /  14.5 km/h 86 % 0 in /  0.0 mm
07:02 58.6 °F /  14.8 °C 54.5 °F /  12.5 °C 30.1 in /  1019.2 hPa WSW 5 mph /  8.0 km/h 10 mph /  16.1 km/h 86 % 0 in /  0.0 mm
07:12 58.6 °F /  14.8 °C 54.5 °F /  12.5 °C 30.1 in /  1019.5 hPa SW 4 mph /  6.4 km/h 10 mph /  16.1 km/h 86 % 0 in /  0.0 mm
07:22 58.6 °F /  14.8 °C 54.5 °F /  12.5 °C 30.1 in /  1019.5 hPa WSW 7 mph /  11.3 km/h 10 mph /  16.1 km/h 86 % 0 in /  0.0 mm
07:32 58.6 °F /  14.8 °C 54.5 °F /  12.5 °C 30.1 in /  1019.5 hPa SW 5 mph /  8.0 km/h 8 mph /  12.9 km/h 86 % 0 in /  0.0 mm
07:42 58.8 °F /  14.9 °C 54.7 °F /  12.6 °C 30.1 in /  1019.5 hPa WSW 3 mph /  4.8 km/h 8 mph /  12.9 km/h 86 % 0 in /  0.0 mm
07:47 58.8 °F /  14.9 °C 54.7 °F /  12.6 °C 30.1 in /  1019.5 hPa SW 4 mph /  6.4 km/h 9 mph /  14.5 km/h 86 % 0 in /  0.0 mm
07:52 58.8 °F /  14.9 °C 54.7 °F /  12.6 °C 30.1 in /  1019.5 hPa SW 5 mph /  8.0 km/h 9 mph /  14.5 km/h 86 % 0 in /  0.0 mm
08:02 59.2 °F /  15.1 °C 54.7 °F /  12.6 °C 30.1 in /  1019.5 hPa West 4 mph /  6.4 km/h 9 mph /  14.5 km/h 85 % 0 in /  0.0 mm
08:07 59.2 °F /  15.1 °C 54.7 °F /  12.6 °C 30.1 in /  1019.5 hPa SSW 3 mph /  4.8 km/h 13 mph /  20.9 km/h 85 % 0 in /  0.0 mm
08:12 59.4 °F /  15.2 °C 54.9 °F /  12.7 °C 30.1 in /  1019.5 hPa SW 6 mph /  9.7 km/h 13 mph /  20.9 km/h 85 % 0 in /  0.0 mm
08:17 59.4 °F /  15.2 °C 54.5 °F /  12.5 °C 30.1 in /  1019.5 hPa WSW 3 mph /  4.8 km/h 13 mph /  20.9 km/h 84 % 0 in /  0.0 mm
08:22 59.5 °F /  15.3 °C 54.7 °F /  12.6 °C 30.1 in /  1019.9 hPa SW 5 mph /  8.0 km/h 13 mph /  20.9 km/h 84 % 0 in /  0.0 mm
08:32 59.7 °F /  15.4 °C 54.9 °F /  12.7 °C 30.1 in /  1019.9 hPa SW 5 mph /  8.0 km/h 12 mph /  19.3 km/h 84 % 0 in /  0.0 mm
08:42 60.1 °F /  15.6 °C 55.2 °F /  12.9 °C 30.1 in /  1019.9 hPa WSW 5 mph /  8.0 km/h 10 mph /  16.1 km/h 84 % 0 in /  0.0 mm
08:52 60.1 °F /  15.6 °C 54.9 °F /  12.7 °C 30.1 in /  1019.9 hPa West 4 mph /  6.4 km/h 10 mph /  16.1 km/h 83 % 0 in /  0.0 mm
09:02 60.1 °F /  15.6 °C 54.9 °F /  12.7 °C 30.1 in /  1019.9 hPa WSW 4 mph /  6.4 km/h 11 mph /  17.7 km/h 83 % 0 in /  0.0 mm
09:07 60.3 °F /  15.7 °C 55 °F /  12.8 °C 30.1 in /  1019.9 hPa West 4 mph /  6.4 km/h 11 mph /  17.7 km/h 83 % 0 in /  0.0 mm
09:12 60.6 °F /  15.9 °C 55.4 °F /  13.0 °C 30.1 in /  1019.9 hPa WSW 5 mph /  8.0 km/h 11 mph /  17.7 km/h 83 % 0 in /  0.0 mm
09:17 61 °F /  16.1 °C 55.4 °F /  13.0 °C 30.1 in /  1019.9 hPa SW 4 mph /  6.4 km/h 13 mph /  20.9 km/h 82 % 0 in /  0.0 mm
09:22 61.3 °F /  16.3 °C 55.8 °F /  13.2 °C 30.1 in /  1019.9 hPa WSW 11 mph /  17.7 km/h 13 mph /  20.9 km/h 82 % 0 in /  0.0 mm
09:32 61.3 °F /  16.3 °C 54.5 °F /  12.5 °C 30.1 in /  1019.9 hPa West 4 mph /  6.4 km/h 13 mph /  20.9 km/h 78 % 0 in /  0.0 mm
09:42 61.7 °F /  16.5 °C 54.9 °F /  12.7 °C 30.1 in /  1019.9 hPa WSW 7 mph /  11.3 km/h 15 mph /  24.1 km/h 78 % 0 in /  0.0 mm
09:52 62.6 °F /  17.0 °C 55.2 °F /  12.9 °C 30.1 in /  1019.9 hPa WSW 5 mph /  8.0 km/h 14 mph /  22.5 km/h 77 % 0 in /  0.0 mm
10:02 62.2 °F /  16.8 °C 54.5 °F /  12.5 °C 30.1 in /  1019.9 hPa West 5 mph /  8.0 km/h 13 mph /  20.9 km/h 76 % 0 in /  0.0 mm
10:07 62.4 °F /  16.9 °C 55 °F /  12.8 °C 30.1 in /  1019.9 hPa West 9 mph /  14.5 km/h 13 mph /  20.9 km/h 77 % 0 in /  0.0 mm
10:12 62.4 °F /  16.9 °C 54.7 °F /  12.6 °C 30.1 in /  1019.9 hPa SW 6 mph /  9.7 km/h 13 mph /  20.9 km/h 76 % 0 in /  0.0 mm
10:22 62.6 °F /  17.0 °C 54.1 °F /  12.3 °C 30.1 in /  1019.9 hPa WSW 5 mph /  8.0 km/h 13 mph /  20.9 km/h 74 % 0 in /  0.0 mm
10:32 62.8 °F /  17.1 °C 54.7 °F /  12.6 °C 30.1 in /  1019.9 hPa WSW 7 mph /  11.3 km/h 15 mph /  24.1 km/h 75 % 0 in /  0.0 mm
10:42 63.7 °F /  17.6 °C 54.5 °F /  12.5 °C 30.1 in /  1019.9 hPa SSW 5 mph /  8.0 km/h 14 mph /  22.5 km/h 72 % 0 in /  0.0 mm
10:47 63.7 °F /  17.6 °C 54.9 °F /  12.7 °C 30.1 in /  1019.9 hPa SW 4 mph /  6.4 km/h 15 mph /  24.1 km/h 73 % 0 in /  0.0 mm
10:52 63.9 °F /  17.7 °C 54.3 °F /  12.4 °C 30.1 in /  1019.9 hPa West 7 mph /  11.3 km/h 15 mph /  24.1 km/h 71 % 0 in /  0.0 mm
11:02 63.9 °F /  17.7 °C 54.3 °F /  12.4 °C 30.1 in /  1019.9 hPa WSW 12 mph /  19.3 km/h 15 mph /  24.1 km/h 71 % 0 in /  0.0 mm
11:12 64.2 °F /  17.9 °C 54.7 °F /  12.6 °C 30.1 in /  1019.9 hPa WSW 9 mph /  14.5 km/h 14 mph /  22.5 km/h 71 % 0 in /  0.0 mm
11:17 64.2 °F /  17.9 °C 54.7 °F /  12.6 °C 30.1 in /  1019.9 hPa SW 8 mph /  12.9 km/h 14 mph /  22.5 km/h 71 % 0 in /  0.0 mm
11:22 63.9 °F /  17.7 °C 55 °F /  12.8 °C 30.1 in /  1019.9 hPa WSW 8 mph /  12.9 km/h 14 mph /  22.5 km/h 73 % 0 in /  0.0 mm
11:32 62.6 °F /  17.0 °C 55.6 °F /  13.1 °C 30.1 in /  1020.2 hPa SW 5 mph /  8.0 km/h 13 mph /  20.9 km/h 78 % 0 in /  0.0 mm
11:42 61.9 °F /  16.6 °C 55.6 °F /  13.1 °C 30.1 in /  1019.9 hPa SW 10 mph /  16.1 km/h 15 mph /  24.1 km/h 80 % 0 in /  0.0 mm
11:47 62.2 °F /  16.8 °C 55.6 °F /  13.1 °C 30.1 in /  1020.2 hPa WSW 7 mph /  11.3 km/h 15 mph /  24.1 km/h 79 % 0 in /  0.0 mm
11:52 63.1 °F /  17.3 °C 55.4 °F /  13.0 °C 30.1 in /  1019.9 hPa WSW 14 mph /  22.5 km/h 15 mph /  24.1 km/h 76 % 0 in /  0.0 mm
12:02 64 °F /  17.8 °C 55.2 °F /  12.9 °C 30.1 in /  1019.9 hPa SW 6 mph /  9.7 km/h 19 mph /  30.6 km/h 73 % 0 in /  0.0 mm
12:12 65.1 °F /  18.4 °C 55.4 °F /  13.0 °C 30.1 in /  1019.9 hPa SW 5 mph /  8.0 km/h 20 mph /  32.2 km/h 71 % 0 in /  0.0 mm
12:17 65.7 °F /  18.7 °C 55.6 °F /  13.1 °C 30.1 in /  1019.9 hPa West 5 mph /  8.0 km/h 17 mph /  27.4 km/h 70 % 0 in /  0.0 mm
12:22 65.8 °F /  18.8 °C 55.4 °F /  13.0 °C 30.1 in /  1019.9 hPa West 8 mph /  12.9 km/h 17 mph /  27.4 km/h 69 % 0 in /  0.0 mm
12:27 66 °F /  18.9 °C 54.7 °F /  12.6 °C 30.1 in /  1019.9 hPa WSW 11 mph /  17.7 km/h 13 mph /  20.9 km/h 67 % 0 in /  0.0 mm
12:32 65.5 °F /  18.6 °C 53.8 °F /  12.1 °C 30.1 in /  1019.9 hPa West 10 mph /  16.1 km/h 13 mph /  20.9 km/h 66 % 0 in /  0.0 mm
12:42 65.8 °F /  18.8 °C 54.5 °F /  12.5 °C 30.1 in /  1019.9 hPa SW 4 mph /  6.4 km/h 16 mph /  25.7 km/h 67 % 0 in /  0.0 mm
12:52 66.4 °F /  19.1 °C 54.7 °F /  12.6 °C 30.1 in /  1019.9 hPa WNW 8 mph /  12.9 km/h 17 mph /  27.4 km/h 66 % 0 in /  0.0 mm
13:02 66 °F /  18.9 °C 54 °F /  12.2 °C 30.1 in /  1019.9 hPa SW 5 mph /  8.0 km/h 16 mph /  25.7 km/h 65 % 0 in /  0.0 mm
13:12 67.8 °F /  19.9 °C 55.2 °F /  12.9 °C 30.1 in /  1019.5 hPa SW 4 mph /  6.4 km/h 16 mph /  25.7 km/h 64 % 0 in /  0.0 mm
13:17 67.8 °F /  19.9 °C 54.3 °F /  12.4 °C 30.1 in /  1019.5 hPa West 5 mph /  8.0 km/h 14 mph /  22.5 km/h 62 % 0 in /  0.0 mm
13:22 67.8 °F /  19.9 °C 54.3 °F /  12.4 °C 30.1 in /  1019.5 hPa West 8 mph /  12.9 km/h 14 mph /  22.5 km/h 62 % 0 in /  0.0 mm
13:32 68.7 °F /  20.4 °C 53.4 °F /  11.9 °C 30.1 in /  1019.5 hPa SW 11 mph /  17.7 km/h 15 mph /  24.1 km/h 58 % 0 in /  0.0 mm
13:37 68.5 °F /  20.3 °C 53.6 °F /  12.0 °C 30.1 in /  1019.2 hPa WSW 4 mph /  6.4 km/h 13 mph /  20.9 km/h 59 % 0 in /  0.0 mm
13:42 68.7 °F /  20.4 °C 53.8 °F /  12.1 °C 30.1 in /  1019.5 hPa WSW 5 mph /  8.0 km/h 13 mph /  20.9 km/h 59 % 0 in /  0.0 mm
13:52 68.9 °F /  20.5 °C 54 °F /  12.2 °C 30.1 in /  1019.5 hPa West 4 mph /  6.4 km/h 16 mph /  25.7 km/h 59 % 0 in /  0.0 mm
13:57 69.3 °F /  20.7 °C 54.3 °F /  12.4 °C 30.1 in /  1019.5 hPa SSW 7 mph /  11.3 km/h 16 mph /  25.7 km/h 59 % 0 in /  0.0 mm
14:02 68.7 °F /  20.4 °C 52.9 °F /  11.6 °C 30.1 in /  1019.5 hPa SW 10 mph /  16.1 km/h 16 mph /  25.7 km/h 57 % 0 in /  0.0 mm
14:12 69.3 °F /  20.7 °C 52.9 °F /  11.6 °C 30.1 in /  1019.2 hPa WSW 17 mph /  27.4 km/h 17 mph /  27.4 km/h 56 % 0 in /  0.0 mm
14:17 69.8 °F /  21.0 °C 53.4 °F /  11.9 °C 30.1 in /  1019.2 hPa West 9 mph /  14.5 km/h 16 mph /  25.7 km/h 56 % 0 in /  0.0 mm
14:22 70.2 °F /  21.2 °C 54.1 °F /  12.3 °C 30.1 in /  1019.2 hPa West 7 mph /  11.3 km/h 16 mph /  25.7 km/h 57 % 0 in /  0.0 mm
14:32 70 °F /  21.1 °C 53.6 °F /  12.0 °C 30.1 in /  1019.2 hPa SW 5 mph /  8.0 km/h 17 mph /  27.4 km/h 56 % 0 in /  0.0 mm
14:37 69.4 °F /  20.8 °C 53.1 °F /  11.7 °C 30.1 in /  1019.2 hPa SW 9 mph /  14.5 km/h 18 mph /  29.0 km/h 56 % 0 in /  0.0 mm
14:42 69.3 °F /  20.7 °C 52.9 °F /  11.6 °C 30.1 in /  1019.2 hPa WSW 3 mph /  4.8 km/h 18 mph /  29.0 km/h 56 % 0 in /  0.0 mm
14:47 69.4 °F /  20.8 °C 53.1 °F /  11.7 °C 30.1 in /  1019.2 hPa West 5 mph /  8.0 km/h 12 mph /  19.3 km/h 56 % 0 in /  0.0 mm
14:57 68.9 °F /  20.5 °C 52.5 °F /  11.4 °C 30.1 in /  1019.2 hPa West 12 mph /  19.3 km/h 15 mph /  24.1 km/h 56 % 0 in /  0.0 mm
15:02 68.9 °F /  20.5 °C 52.5 °F /  11.4 °C 30.1 in /  1019.2 hPa SW 10 mph /  16.1 km/h 15 mph /  24.1 km/h 56 % 0 in /  0.0 mm
15:07 68.7 °F /  20.4 °C 52.9 °F /  11.6 °C 30.1 in /  1019.2 hPa West 8 mph /  12.9 km/h 15 mph /  24.1 km/h 57 % 0 in /  0.0 mm
15:12 68.5 °F /  20.3 °C 52.7 °F /  11.5 °C 30.1 in /  1018.8 hPa West 5 mph /  8.0 km/h 15 mph /  24.1 km/h 57 % 0 in /  0.0 mm
15:17 68.4 °F /  20.2 °C 53.1 °F /  11.7 °C 30.1 in /  1018.8 hPa West 5 mph /  8.0 km/h 15 mph /  24.1 km/h 58 % 0 in /  0.0 mm
15:22 68.4 °F /  20.2 °C 53.4 °F /  11.9 °C 30.1 in /  1018.8 hPa WNW 5 mph /  8.0 km/h 15 mph /  24.1 km/h 59 % 0 in /  0.0 mm
15:27 68.5 °F /  20.3 °C 53.6 °F /  12.0 °C 30.1 in /  1018.8 hPa West 6 mph /  9.7 km/h 14 mph /  22.5 km/h 59 % 0 in /  0.0 mm
15:32 69.1 °F /  20.6 °C 53.6 °F /  12.0 °C 30.1 in /  1018.8 hPa SW 4 mph /  6.4 km/h 14 mph /  22.5 km/h 58 % 0 in /  0.0 mm
15:42 69.4 °F /  20.8 °C 53.6 °F /  12.0 °C 30.1 in /  1018.8 hPa WSW 8 mph /  12.9 km/h 14 mph /  22.5 km/h 57 % 0 in /  0.0 mm
15:47 69.8 °F /  21.0 °C 54.3 °F /  12.4 °C 30.1 in /  1018.5 hPa SSW 5 mph /  8.0 km/h 13 mph /  20.9 km/h 58 % 0 in /  0.0 mm
15:52 70.3 °F /  21.3 °C 53.4 °F /  11.9 °C 30.1 in /  1018.5 hPa WSW 5 mph /  8.0 km/h 13 mph /  20.9 km/h 55 % 0 in /  0.0 mm
15:57 70.3 °F /  21.3 °C 53.4 °F /  11.9 °C 30.1 in /  1018.5 hPa West 5 mph /  8.0 km/h 12 mph /  19.3 km/h 55 % 0 in /  0.0 mm
16:02 70.5 °F /  21.4 °C 53.6 °F /  12.0 °C 30.1 in /  1018.5 hPa SW 8 mph /  12.9 km/h 12 mph /  19.3 km/h 55 % 0 in /  0.0 mm
16:12 70.3 °F /  21.3 °C 53.4 °F /  11.9 °C 30.1 in /  1018.5 hPa SW 6 mph /  9.7 km/h 15 mph /  24.1 km/h 55 % 0 in /  0.0 mm
16:17 70 °F /  21.1 °C 53.6 °F /  12.0 °C 30.1 in /  1018.2 hPa SW 5 mph /  8.0 km/h 15 mph /  24.1 km/h 56 % 0 in /  0.0 mm
16:22 69.6 °F /  20.9 °C 53.2 °F /  11.8 °C 30.1 in /  1018.2 hPa WSW 8 mph /  12.9 km/h 15 mph /  24.1 km/h 56 % 0 in /  0.0 mm
16:27 69.6 °F /  20.9 °C 53.2 °F /  11.8 °C 30.1 in /  1018.2 hPa WSW 6 mph /  9.7 km/h 12 mph /  19.3 km/h 56 % 0 in /  0.0 mm
16:32 69.6 °F /  20.9 °C 53.8 °F /  12.1 °C 30.1 in /  1018.2 hPa WSW 4 mph /  6.4 km/h 12 mph /  19.3 km/h 57 % 0 in /  0.0 mm
16:37 69.6 °F /  20.9 °C 53.2 °F /  11.8 °C 30.1 in /  1018.2 hPa WSW 10 mph /  16.1 km/h 16 mph /  25.7 km/h 56 % 0 in /  0.0 mm
16:42 69.6 °F /  20.9 °C 53.8 °F /  12.1 °C 30.1 in /  1018.2 hPa West 7 mph /  11.3 km/h 16 mph /  25.7 km/h 57 % 0 in /  0.0 mm
16:47 69.6 °F /  20.9 °C 53.8 °F /  12.1 °C 30.1 in /  1018.2 hPa West 6 mph /  9.7 km/h 16 mph /  25.7 km/h 57 % 0 in /  0.0 mm
16:52 69.6 °F /  20.9 °C 54.1 °F /  12.3 °C 30.1 in /  1018.2 hPa West 6 mph /  9.7 km/h 16 mph /  25.7 km/h 58 % 0 in /  0.0 mm
16:57 70 °F /  21.1 °C 54 °F /  12.2 °C 30.1 in /  1017.8 hPa WSW 11 mph /  17.7 km/h 12 mph /  19.3 km/h 57 % 0 in /  0.0 mm
17:02 70 °F /  21.1 °C 53.6 °F /  12.0 °C 30.1 in /  1017.8 hPa WSW 9 mph /  14.5 km/h 12 mph /  19.3 km/h 56 % 0 in /  0.0 mm
17:12 70.5 °F /  21.4 °C 53.6 °F /  12.0 °C 30.1 in /  1017.8 hPa WSW 6 mph /  9.7 km/h 12 mph /  19.3 km/h 55 % 0 in /  0.0 mm
17:17 70.9 °F /  21.6 °C 54 °F /  12.2 °C 30.1 in /  1017.8 hPa WSW 5 mph /  8.0 km/h 12 mph /  19.3 km/h 55 % 0 in /  0.0 mm
17:22 71.1 °F /  21.7 °C 54.5 °F /  12.5 °C 30.1 in /  1017.5 hPa West 7 mph /  11.3 km/h 12 mph /  19.3 km/h 56 % 0 in /  0.0 mm
17:32 71.1 °F /  21.7 °C 53.6 °F /  12.0 °C 30.1 in /  1017.5 hPa WSW 14 mph /  22.5 km/h 14 mph /  22.5 km/h 54 % 0 in /  0.0 mm
17:37 70.9 °F /  21.6 °C 54 °F /  12.2 °C 30.1 in /  1017.5 hPa SW 8 mph /  12.9 km/h 16 mph /  25.7 km/h 55 % 0 in /  0.0 mm
17:42 71.1 °F /  21.7 °C 54.1 °F /  12.3 °C 30 in /  1017.2 hPa West 6 mph /  9.7 km/h 16 mph /  25.7 km/h 55 % 0 in /  0.0 mm
17:47 71.1 °F /  21.7 °C 54.1 °F /  12.3 °C 30 in /  1017.2 hPa West 4 mph /  6.4 km/h 15 mph /  24.1 km/h 55 % 0 in /  0.0 mm
17:52 70.7 °F /  21.5 °C 53.8 °F /  12.1 °C 30 in /  1017.2 hPa SW 8 mph /  12.9 km/h 15 mph /  24.1 km/h 55 % 0 in /  0.0 mm
17:57 70.7 °F /  21.5 °C 54.3 °F /  12.4 °C 30 in /  1017.2 hPa WSW 4 mph /  6.4 km/h 18 mph /  29.0 km/h 56 % 0 in /  0.0 mm
18:02 70.9 °F /  21.6 °C 54.3 °F /  12.4 °C 30 in /  1017.2 hPa WSW 12 mph /  19.3 km/h 18 mph /  29.0 km/h 56 % 0 in /  0.0 mm
18:12 70.7 °F /  21.5 °C 54.3 °F /  12.4 °C 30 in /  1017.2 hPa West 3 mph /  4.8 km/h 16 mph /  25.7 km/h 56 % 0 in /  0.0 mm
18:17 70.5 °F /  21.4 °C 54.5 °F /  12.5 °C 30 in /  1017.2 hPa WSW 6 mph /  9.7 km/h 12 mph /  19.3 km/h 57 % 0 in /  0.0 mm
18:22 70.3 °F /  21.3 °C 54.3 °F /  12.4 °C 30 in /  1017.2 hPa WSW 12 mph /  19.3 km/h 16 mph /  25.7 km/h 57 % 0 in /  0.0 mm
18:32 70.2 °F /  21.2 °C 54.7 °F /  12.6 °C 30 in /  1017.2 hPa West 4 mph /  6.4 km/h 16 mph /  25.7 km/h 58 % 0 in /  0.0 mm
18:37 69.8 °F /  21.0 °C 55.2 °F /  12.9 °C 30 in /  1017.2 hPa SSW 3 mph /  4.8 km/h 16 mph /  25.7 km/h 60 % 0 in /  0.0 mm
18:42 69.4 °F /  20.8 °C 54.9 °F /  12.7 °C 30 in /  1017.2 hPa WNW 4 mph /  6.4 km/h 16 mph /  25.7 km/h 60 % 0 in /  0.0 mm
18:47 69.1 °F /  20.6 °C 55 °F /  12.8 °C 30 in /  1017.2 hPa WSW 8 mph /  12.9 km/h 16 mph /  25.7 km/h 61 % 0 in /  0.0 mm
18:57 68.5 °F /  20.3 °C 55.9 °F /  13.3 °C 30 in /  1017.2 hPa WSW 8 mph /  12.9 km/h 13 mph /  20.9 km/h 64 % 0 in /  0.0 mm
19:02 68 °F /  20.0 °C 55.8 °F /  13.2 °C 30 in /  1017.2 hPa West 9 mph /  14.5 km/h 13 mph /  20.9 km/h 65 % 0 in /  0.0 mm
19:12 67.5 °F /  19.7 °C 56.5 °F /  13.6 °C 30.1 in /  1017.5 hPa West 8 mph /  12.9 km/h 16 mph /  25.7 km/h 68 % 0 in /  0.0 mm
19:22 66.4 °F /  19.1 °C 57.4 °F /  14.1 °C 30 in /  1017.2 hPa SW 8 mph /  12.9 km/h 18 mph /  29.0 km/h 73 % 0 in /  0.0 mm
19:32 66 °F /  18.9 °C 57.6 °F /  14.2 °C 30 in /  1017.2 hPa WSW 7 mph /  11.3 km/h 17 mph /  27.4 km/h 74 % 0 in /  0.0 mm
19:37 66 °F /  18.9 °C 57.6 °F /  14.2 °C 30 in /  1017.2 hPa WSW 7 mph /  11.3 km/h 15 mph /  24.1 km/h 74 % 0 in /  0.0 mm
19:42 65.8 °F /  18.8 °C 57.7 °F /  14.3 °C 30 in /  1017.2 hPa WNW 3 mph /  4.8 km/h 15 mph /  24.1 km/h 75 % 0 in /  0.0 mm
19:47 65.7 °F /  18.7 °C 57.9 °F /  14.4 °C 30 in /  1017.2 hPa WSW 4 mph /  6.4 km/h 13 mph /  20.9 km/h 76 % 0 in /  0.0 mm
19:52 65.7 °F /  18.7 °C 57.9 °F /  14.4 °C 30 in /  1017.2 hPa West 3 mph /  4.8 km/h 13 mph /  20.9 km/h 76 % 0 in /  0.0 mm
19:57 65.5 °F /  18.6 °C 57.7 °F /  14.3 °C 30 in /  1017.2 hPa WSW 6 mph /  9.7 km/h 7 mph /  11.3 km/h 76 % 0 in /  0.0 mm
20:02 65.1 °F /  18.4 °C 58.1 °F /  14.5 °C 30 in /  1017.2 hPa West 6 mph /  9.7 km/h 7 mph /  11.3 km/h 78 % 0 in /  0.0 mm
20:12 64.8 °F /  18.2 °C 58.5 °F /  14.7 °C 30 in /  1017.2 hPa WSW 8 mph /  12.9 km/h 11 mph /  17.7 km/h 80 % 0 in /  0.0 mm
20:17 64.2 °F /  17.9 °C 57.9 °F /  14.4 °C 30 in /  1016.8 hPa SW 5 mph /  8.0 km/h 10 mph /  16.1 km/h 80 % 0 in /  0.0 mm
20:22 64 °F /  17.8 °C 58.1 °F /  14.5 °C 30 in /  1016.8 hPa SW 5 mph /  8.0 km/h 10 mph /  16.1 km/h 81 % 0 in /  0.0 mm
20:32 63.9 °F /  17.7 °C 58.3 °F /  14.6 °C 30 in /  1016.5 hPa WSW 3 mph /  4.8 km/h 13 mph /  20.9 km/h 82 % 0 in /  0.0 mm
20:37 63.9 °F /  17.7 °C 58.3 °F /  14.6 °C 30 in /  1016.5 hPa WSW 1 mph /  1.6 km/h 10 mph /  16.1 km/h 82 % 0 in /  0.0 mm
20:47 63.7 °F /  17.6 °C 58.5 °F /  14.7 °C 30 in /  1016.5 hPa West 3 mph /  4.8 km/h 7 mph /  11.3 km/h 83 % 0 in /  0.0 mm
20:57 63.3 °F /  17.4 °C 58.5 °F /  14.7 °C 30 in /  1016.1 hPa Calm   4 mph /  6.4 km/h 84 % 0 in /  0.0 mm
21:02 63.3 °F /  17.4 °C 58.5 °F /  14.7 °C 30 in /  1016.1 hPa WSW 1 mph /  1.6 km/h 4 mph /  6.4 km/h 84 % 0 in /  0.0 mm
21:07 63.3 °F /  17.4 °C 58.8 °F /  14.9 °C 30 in /  1016.1 hPa SW 2 mph /  3.2 km/h 4 mph /  6.4 km/h 85 % 0 in /  0.0 mm
21:12 63.3 °F /  17.4 °C 58.8 °F /  14.9 °C 30 in /  1016.1 hPa West 1 mph /  1.6 km/h 4 mph /  6.4 km/h 85 % 0 in /  0.0 mm
21:17 63.3 °F /  17.4 °C 58.8 °F /  14.9 °C 30 in /  1016.1 hPa SW 1 mph /  1.6 km/h 4 mph /  6.4 km/h 85 % 0 in /  0.0 mm
21:22 63.3 °F /  17.4 °C 58.8 °F /  14.9 °C 30 in /  1015.8 hPa Calm   4 mph /  6.4 km/h 85 % 0 in /  0.0 mm
21:32 63.1 °F /  17.3 °C 58.6 °F /  14.8 °C 30 in /  1015.8 hPa Calm   1 mph /  1.6 km/h 85 % 0 in /  0.0 mm
21:37 63.1 °F /  17.3 °C 58.8 °F /  14.9 °C 30 in /  1015.8 hPa SSW 2 mph /  3.2 km/h 3 mph /  4.8 km/h 86 % 0 in /  0.0 mm
21:42 63 °F /  17.2 °C 58.6 °F /  14.8 °C 30 in /  1015.8 hPa SSW 1 mph /  1.6 km/h 3 mph /  4.8 km/h 86 % 0 in /  0.0 mm
21:47 63 °F /  17.2 °C 59 °F /  15.0 °C 30 in /  1015.8 hPa SW 1 mph /  1.6 km/h 4 mph /  6.4 km/h 87 % 0 in /  0.0 mm
21:52 62.8 °F /  17.1 °C 59.2 °F /  15.1 °C 30 in /  1015.8 hPa SSW 1 mph /  1.6 km/h 4 mph /  6.4 km/h 88 % 0 in /  0.0 mm
21:57 62.6 °F /  17.0 °C 59 °F /  15.0 °C 30 in /  1015.8 hPa SE 3 mph /  4.8 km/h 4 mph /  6.4 km/h 88 % 0 in /  0.0 mm
22:02 62.4 °F /  16.9 °C 58.8 °F /  14.9 °C 30 in /  1015.8 hPa SW 5 mph /  8.0 km/h 5 mph /  8.0 km/h 88 % 0 in /  0.0 mm
22:12 62.4 °F /  16.9 °C 58.8 °F /  14.9 °C 30 in /  1015.8 hPa SSW 3 mph /  4.8 km/h 8 mph /  12.9 km/h 88 % 0 in /  0.0 mm
22:17 62.4 °F /  16.9 °C 59.2 °F /  15.1 °C 30 in /  1015.8 hPa SW 2 mph /  3.2 km/h 8 mph /  12.9 km/h 89 % 0 in /  0.0 mm
22:22 62.2 °F /  16.8 °C 59 °F /  15.0 °C 30 in /  1015.8 hPa SSW 2 mph /  3.2 km/h 8 mph /  12.9 km/h 89 % 0 in /  0.0 mm
22:27 62.2 °F /  16.8 °C 59 °F /  15.0 °C 30 in /  1015.8 hPa SW 4 mph /  6.4 km/h 6 mph /  9.7 km/h 89 % 0 in /  0.0 mm
22:32 62.2 °F /  16.8 °C 59.2 °F /  15.1 °C 30 in /  1015.8 hPa SSW 3 mph /  4.8 km/h 6 mph /  9.7 km/h 90 % 0 in /  0.0 mm
22:37 62.1 °F /  16.7 °C 59.2 °F /  15.1 °C 30 in /  1015.8 hPa SSW 2 mph /  3.2 km/h 6 mph /  9.7 km/h 90 % 0 in /  0.0 mm
22:42 61.9 °F /  16.6 °C 59.2 °F /  15.1 °C 30 in /  1015.5 hPa SSW 3 mph /  4.8 km/h 6 mph /  9.7 km/h 91 % 0 in /  0.0 mm
22:52 61.7 °F /  16.5 °C 59.4 °F /  15.2 °C 30 in /  1015.5 hPa SSW 3 mph /  4.8 km/h 5 mph /  8.0 km/h 92 % 0 in /  0.0 mm
22:57 61.5 °F /  16.4 °C 59.2 °F /  15.1 °C 30 in /  1015.5 hPa SW 4 mph /  6.4 km/h 4 mph /  6.4 km/h 92 % 0.01 in /  0.3 mm
23:02 61.5 °F /  16.4 °C 59.2 °F /  15.1 °C 30 in /  1015.5 hPa SSW 2 mph /  3.2 km/h 4 mph /  6.4 km/h 92 % 0.01 in /  0.3 mm
23:07 61.5 °F /  16.4 °C 59.5 °F /  15.3 °C 30 in /  1015.1 hPa SSW 5 mph /  8.0 km/h 5 mph /  8.0 km/h 93 % 0.01 in /  0.3 mm
23:12 61.5 °F /  16.4 °C 59.5 °F /  15.3 °C 30 in /  1015.1 hPa SSW 4 mph /  6.4 km/h 5 mph /  8.0 km/h 93 % 0.01 in /  0.3 mm
23:17 61.5 °F /  16.4 °C 59.5 °F /  15.3 °C 30 in /  1015.1 hPa SW 3 mph /  4.8 km/h 9 mph /  14.5 km/h 93 % 0.02 in /  0.5 mm
23:22 61.3 °F /  16.3 °C 59 °F /  15.0 °C 30 in /  1015.1 hPa SW 5 mph /  8.0 km/h 9 mph /  14.5 km/h 92 % 0.02 in /  0.5 mm
23:32 61.3 °F /  16.3 °C 59.4 °F /  15.2 °C 30 in /  1014.8 hPa SW 2 mph /  3.2 km/h 9 mph /  14.5 km/h 93 % 0.03 in /  0.8 mm
23:37 61.3 °F /  16.3 °C 59.4 °F /  15.2 °C 30 in /  1015.1 hPa SW 4 mph /  6.4 km/h 8 mph /  12.9 km/h 93 % 0.04 in /  1.0 mm
23:47 61.2 °F /  16.2 °C 59.2 °F /  15.1 °C 30 in /  1014.8 hPa WSW 2 mph /  3.2 km/h 9 mph /  14.5 km/h 93 % 0.04 in /  1.0 mm
23:52 61.2 °F /  16.2 °C 59.2 °F /  15.1 °C 30 in /  1014.8 hPa WSW 4 mph /  6.4 km/h 9 mph /  14.5 km/h 93 % 0.04 in /  1.0 mm
Meteo18
Compliments of Weather Underground - 4 mb

Script developed by  Jim McMurry - jmcmurry@mwt.net Adapted for the template by  Wim van der Kuil - Leuven-Template.eu

You find our weather info also at:

European Weather Network

Weather Underground

Equipment we use:

Weather-station
Davis Vue

Weather-program
Meteohub

Weather-server
Raspberry PI 2 B+

Provider
1 and 1

Davis Vue

Meteohub

Raspberry PI 2 B+

1 and 1